createdAt,value
2023-03-12T00:02:15.106Z,3.10
2023-03-12T00:05:00.619Z,2.92
2023-03-12T00:07:46.030Z,3.00
2023-03-12T00:10:31.627Z,2.85
2023-03-12T00:13:17.201Z,2.72
2023-03-12T00:16:12.584Z,3.08
2023-03-12T00:18:58.350Z,3.08
2023-03-12T00:21:43.867Z,3.47
2023-03-12T00:24:29.242Z,3.90
2023-03-12T00:27:14.759Z,3.50
2023-03-12T00:30:00.358Z,3.05
2023-03-12T00:32:45.836Z,3.50
2023-03-12T00:35:31.276Z,3.55
2023-03-12T00:38:16.687Z,4.13
2023-03-12T00:41:02.238Z,3.70
2023-03-12T00:43:49.415Z,3.80
2023-03-12T00:46:35.124Z,4.30
2023-03-12T00:49:20.881Z,4.20
2023-03-12T00:52:06.617Z,4.30
2023-03-12T00:54:52.210Z,3.75
2023-03-12T00:57:37.663Z,4.20
2023-03-12T01:00:23.349Z,3.78
2023-03-12T01:03:08.698Z,3.95
2023-03-12T01:05:57.002Z,3.97
2023-03-12T01:08:42.212Z,4.05
2023-03-12T01:11:28.490Z,3.92
2023-03-12T01:14:14.890Z,4.07
2023-03-12T01:17:00.276Z,4.20
2023-03-12T01:19:45.735Z,4.43
2023-03-12T01:22:31.350Z,3.97
2023-03-12T01:25:16.459Z,4.22
2023-03-12T01:28:02.159Z,4.10
2023-03-12T01:30:47.905Z,3.90
2023-03-12T01:33:33.289Z,3.70
2023-03-12T01:36:25.034Z,4.00
2023-03-12T01:39:10.100Z,4.28
2023-03-12T01:41:55.649Z,4.32
2023-03-12T01:45:02.086Z,4.57
2023-03-12T01:47:49.643Z,4.45
2023-03-12T01:50:35.009Z,4.38
2023-03-12T01:53:20.602Z,4.53
2023-03-12T01:56:08.100Z,4.47
2023-03-12T01:58:58.718Z,4.03
2023-03-12T02:01:45.415Z,4.40
2023-03-12T02:04:33.013Z,4.35
2023-03-12T02:07:19.594Z,4.10
2023-03-12T02:10:05.476Z,4.25
2023-03-12T02:12:51.539Z,4.25
2023-03-12T02:15:38.257Z,4.32
2023-03-12T02:18:23.787Z,4.38
2023-03-12T02:21:25.827Z,3.97
2023-03-12T02:24:25.145Z,4.00
2023-03-12T02:27:12.011Z,4.18
2023-03-12T02:29:57.575Z,4.10
2023-03-12T02:32:45.217Z,4.07
2023-03-12T02:35:31.223Z,4.15
2023-03-12T02:38:38.260Z,3.83
2023-03-12T02:41:37.911Z,3.90
2023-03-12T02:44:31.463Z,3.53
2023-03-12T02:47:16.927Z,3.55
2023-03-12T02:50:02.426Z,3.80
2023-03-12T02:52:47.913Z,4.07
2023-03-12T02:55:33.426Z,3.80
2023-03-12T02:58:18.913Z,3.80
2023-03-12T03:01:04.644Z,3.90
2023-03-12T03:03:50.406Z,3.75
2023-03-12T03:06:37.734Z,3.78
2023-03-12T03:09:24.345Z,3.85
2023-03-12T03:12:09.700Z,3.47
2023-03-12T03:14:56.202Z,3.60
2023-03-12T03:17:41.828Z,3.55
2023-03-12T03:20:27.184Z,3.60
2023-03-12T03:23:12.457Z,3.13
2023-03-12T03:25:59.578Z,3.60
2023-03-12T03:28:45.048Z,3.40
2023-03-12T03:31:31.130Z,3.10
2023-03-12T03:34:17.237Z,3.45
2023-03-12T03:37:02.901Z,3.38
2023-03-12T03:39:49.933Z,2.80
2023-03-12T03:42:36.382Z,3.22
2023-03-12T03:45:21.944Z,2.80
2023-03-12T03:48:07.540Z,2.95
2023-03-12T03:50:53.042Z,3.15
2023-03-12T03:53:38.693Z,3.22
2023-03-12T03:56:25.036Z,2.90
2023-03-12T03:59:10.767Z,2.90
2023-03-12T04:01:58.132Z,3.10
2023-03-12T04:04:45.185Z,3.10
2023-03-12T04:07:30.649Z,2.75
2023-03-12T04:10:16.629Z,3.10
2023-03-12T04:13:01.942Z,3.00
2023-03-12T04:15:49.067Z,2.50
2023-03-12T04:18:36.230Z,2.83
2023-03-12T04:21:22.250Z,3.00
2023-03-12T04:24:14.616Z,3.10
2023-03-12T04:27:00.394Z,2.78
2023-03-12T04:29:46.238Z,3.10
2023-03-12T04:32:31.996Z,2.97
2023-03-12T04:35:17.641Z,2.90
2023-03-12T04:38:04.083Z,3.15
2023-03-12T04:41:09.030Z,3.20
2023-03-12T04:43:56.874Z,2.83
2023-03-12T04:46:43.164Z,2.60
2023-03-12T04:49:31.794Z,2.63
2023-03-12T04:52:17.706Z,2.80
2023-03-12T04:55:03.737Z,2.97
2023-03-12T04:57:49.458Z,2.80
2023-03-12T05:00:36.105Z,2.85
2023-03-12T05:03:22.009Z,2.88
2023-03-12T05:06:07.589Z,2.50
2023-03-12T05:08:53.162Z,2.75
2023-03-12T05:11:39.850Z,2.70
2023-03-12T05:14:29.063Z,2.83
2023-03-12T05:17:15.250Z,2.85
2023-03-12T05:20:00.963Z,2.40
2023-03-12T05:22:46.454Z,2.53
2023-03-12T05:25:32.431Z,2.80
2023-03-12T05:28:18.274Z,2.97
2023-03-12T05:31:10.432Z,2.60
2023-03-12T05:36:42.139Z,2.50
2023-03-12T05:39:28.453Z,2.70
2023-03-12T05:42:17.922Z,2.63
2023-03-12T05:45:05.166Z,2.72
2023-03-12T05:47:50.900Z,2.83
2023-03-12T05:50:36.729Z,3.00
2023-03-12T05:53:22.247Z,2.85
2023-03-12T05:56:10.821Z,3.20
2023-03-12T05:58:56.478Z,2.92
2023-03-12T06:01:42.068Z,2.88
2023-03-12T06:04:27.450Z,3.35
2023-03-12T06:07:12.875Z,2.97
2023-03-12T06:09:59.793Z,3.20
2023-03-12T06:12:45.514Z,4.00
2023-03-12T06:15:30.826Z,3.80
2023-03-12T06:18:16.386Z,3.80
2023-03-12T06:21:14.348Z,3.70
2023-03-12T06:24:00.022Z,3.85
2023-03-12T06:26:49.820Z,4.22
2023-03-12T06:29:35.422Z,4.20
2023-03-12T06:32:20.762Z,4.90
2023-03-12T06:35:06.408Z,4.60
2023-03-12T06:37:51.794Z,4.68
2023-03-12T06:40:37.313Z,4.50
2023-03-12T06:43:23.246Z,5.13
2023-03-12T06:46:11.464Z,5.03
2023-03-12T06:48:56.910Z,4.88
2023-03-12T06:51:42.292Z,5.40
2023-03-12T06:54:27.551Z,5.65
2023-03-12T06:57:12.923Z,5.40
2023-03-12T06:59:58.284Z,5.65
2023-03-12T07:02:43.766Z,5.30
2023-03-12T07:05:30.259Z,5.90
2023-03-12T07:08:16.665Z,6.13
2023-03-12T07:11:02.213Z,6.55
2023-03-12T07:13:47.898Z,5.68
2023-03-12T07:16:33.231Z,6.28
2023-03-12T07:19:19.368Z,5.75
2023-03-12T07:22:05.601Z,6.43
2023-03-12T07:24:51.374Z,5.68
2023-03-12T07:27:36.963Z,5.60
2023-03-12T07:30:25.988Z,6.00
2023-03-12T07:33:12.652Z,5.10
2023-03-12T07:35:58.512Z,5.50
2023-03-12T07:38:44.098Z,5.32
2023-03-12T07:41:29.783Z,5.65
2023-03-12T07:44:15.150Z,5.78
2023-03-12T07:47:12.801Z,6.22
2023-03-12T07:50:02.641Z,5.80
2023-03-12T07:52:48.134Z,6.20
2023-03-12T07:55:35.004Z,6.07
2023-03-12T07:58:20.586Z,6.35
2023-03-12T08:01:06.716Z,6.57
2023-03-12T08:03:52.283Z,6.00
2023-03-12T08:06:38.666Z,6.28
2023-03-12T08:09:24.099Z,7.03
2023-03-12T08:12:09.506Z,6.85
2023-03-12T08:14:55.003Z,6.68
2023-03-12T08:17:41.157Z,6.85
2023-03-12T08:20:26.255Z,7.40
2023-03-12T08:23:12.112Z,7.25
2023-03-12T08:25:58.845Z,7.88
2023-03-12T08:28:44.342Z,10.15
2023-03-12T08:31:29.841Z,9.52
2023-03-12T08:34:15.150Z,9.68
2023-03-12T08:37:01.127Z,9.30
2023-03-12T08:39:46.508Z,10.07
2023-03-12T08:42:31.791Z,10.88
2023-03-12T08:45:17.277Z,9.18
2023-03-12T08:48:04.228Z,10.10
2023-03-12T08:50:50.248Z,11.30
2023-03-12T08:53:36.729Z,11.43
2023-03-12T08:56:22.317Z,13.25
2023-03-12T08:59:13.401Z,12.07
2023-03-12T09:01:59.189Z,12.27
2023-03-12T09:04:50.884Z,11.55
2023-03-12T09:07:36.312Z,11.35
2023-03-12T09:10:21.946Z,11.82
2023-03-12T09:13:07.606Z,11.63
2023-03-12T09:15:52.797Z,12.23
2023-03-12T09:18:40.048Z,11.70
2023-03-12T09:21:25.535Z,14.60
2023-03-12T09:24:11.821Z,11.98
2023-03-12T09:26:56.993Z,13.23
2023-03-12T09:29:58.785Z,11.65
2023-03-12T09:35:31.589Z,12.23
2023-03-12T09:38:16.974Z,13.52
2023-03-12T09:41:05.426Z,14.38
2023-03-12T09:44:16.619Z,14.25
2023-03-12T09:47:13.858Z,14.52
2023-03-12T09:50:25.264Z,13.63
2023-03-12T09:53:31.169Z,14.13
2023-03-12T09:56:21.356Z,14.35
2023-03-12T09:59:12.365Z,14.52
2023-03-12T10:02:02.492Z,13.38
2023-03-12T10:05:00.023Z,13.00
2023-03-12T10:07:56.260Z,12.35
2023-03-12T10:10:55.362Z,11.05
2023-03-12T10:13:52.615Z,10.38
2023-03-12T10:17:00.093Z,8.55
2023-03-12T10:19:55.872Z,6.93
2023-03-12T10:22:58.779Z,6.60
2023-03-12T10:25:58.257Z,5.80
2023-03-12T10:28:51.669Z,5.20
2023-03-12T10:31:55.244Z,5.05
2023-03-12T10:34:53.804Z,5.13
2023-03-12T10:37:58.514Z,4.60
2023-03-12T10:40:43.852Z,4.55
2023-03-12T10:43:29.485Z,4.28
2023-03-12T10:46:14.819Z,4.13
2023-03-12T10:49:22.256Z,3.78
2023-03-12T10:52:19.388Z,3.92
2023-03-12T10:55:26.618Z,3.88
2023-03-12T10:58:23.729Z,3.63
2023-03-12T11:01:15.227Z,4.18
2023-03-12T11:04:24.482Z,4.47
2023-03-12T11:07:12.900Z,3.67
2023-03-12T11:10:07.346Z,4.82
2023-03-12T11:13:03.469Z,4.47
2023-03-12T11:15:48.931Z,4.10
2023-03-12T11:18:37.878Z,3.63
2023-03-12T11:21:28.552Z,3.42
2023-03-12T11:24:14.869Z,4.75
2023-03-12T11:27:21.055Z,3.55
2023-03-12T11:30:07.869Z,3.83
2023-03-12T11:32:53.435Z,3.80
2023-03-12T11:36:04.460Z,3.85
2023-03-12T11:38:55.448Z,3.83
2023-03-12T11:41:59.016Z,4.97
2023-03-12T11:45:05.599Z,4.53
2023-03-12T11:48:02.424Z,4.88
2023-03-12T11:51:07.786Z,4.40
2023-03-12T11:54:22.072Z,5.00
2023-03-12T11:57:13.447Z,4.05
2023-03-12T12:00:21.017Z,4.38
2023-03-12T12:03:42.362Z,4.10
2023-03-12T12:06:57.779Z,4.25
2023-03-12T12:10:22.642Z,4.93
2023-03-12T12:13:45.185Z,4.57
2023-03-12T12:16:59.594Z,4.45
2023-03-12T12:20:21.605Z,4.30
2023-03-12T12:23:19.595Z,4.57
2023-03-12T12:26:26.103Z,4.53
2023-03-12T12:29:29.789Z,4.75
2023-03-12T12:32:22.964Z,4.82
2023-03-12T12:35:19.874Z,4.53
2023-03-12T12:38:18.353Z,4.50
2023-03-12T12:41:08.207Z,4.20
2023-03-12T12:43:59.819Z,4.20
2023-03-12T12:46:50.775Z,4.20
2023-03-12T12:49:59.461Z,3.65
2023-03-12T12:52:46.285Z,4.82
2023-03-12T12:55:54.725Z,4.63
2023-03-12T12:58:51.264Z,4.82
2023-03-12T13:01:38.053Z,4.88
2023-03-12T13:04:28.364Z,4.40
2023-03-12T13:07:13.938Z,4.63
2023-03-12T13:09:59.660Z,3.90
2023-03-12T13:12:54.994Z,5.80
2023-03-12T13:15:43.662Z,5.70
2023-03-12T13:18:30.148Z,4.85
2023-03-12T13:21:26.895Z,5.00
2023-03-12T13:24:43.239Z,5.22
2023-03-12T13:27:38.582Z,5.13
2023-03-12T13:30:33.206Z,4.25
2023-03-12T13:33:21.637Z,5.65
2023-03-12T13:36:23.590Z,5.22
2023-03-12T13:39:21.088Z,5.22
2023-03-12T13:42:35.554Z,5.40
2023-03-12T13:45:26.932Z,4.35
2023-03-12T13:48:17.021Z,4.60
2023-03-12T13:51:14.929Z,5.15
2023-03-12T13:54:02.998Z,5.57
2023-03-12T13:56:57.445Z,4.00
2023-03-12T13:59:45.663Z,5.28
2023-03-12T14:02:34.983Z,4.63
2023-03-12T14:05:20.947Z,4.70
2023-03-12T14:08:29.707Z,3.90
2023-03-12T14:11:43.469Z,4.32
2023-03-12T14:14:50.891Z,5.13
2023-03-12T14:17:37.905Z,5.13
2023-03-12T14:20:24.005Z,4.18
2023-03-12T14:23:15.252Z,4.70
2023-03-12T14:26:04.278Z,4.95
2023-03-12T14:28:58.007Z,4.50
2023-03-12T14:31:43.566Z,3.88
2023-03-12T14:34:38.423Z,3.58
2023-03-12T14:37:36.458Z,4.70
2023-03-12T14:40:44.580Z,4.35
2023-03-12T14:43:35.152Z,4.00
2023-03-12T14:46:22.748Z,3.58
2023-03-12T14:49:19.237Z,4.22
2023-03-12T14:52:04.718Z,4.88
2023-03-12T14:54:56.044Z,3.60
2023-03-12T14:57:42.041Z,3.60
2023-03-12T15:00:28.666Z,3.95
2023-03-12T15:03:16.424Z,4.53
2023-03-12T15:06:01.790Z,3.55
2023-03-12T15:08:48.905Z,4.03
2023-03-12T15:11:37.173Z,3.60
2023-03-12T15:14:24.242Z,4.75
2023-03-12T15:17:17.341Z,4.20
2023-03-12T15:20:09.279Z,3.90
2023-03-12T15:22:55.287Z,4.97
2023-03-12T15:25:41.104Z,4.18
2023-03-12T15:28:28.056Z,4.32
2023-03-12T15:31:16.851Z,4.07
2023-03-12T15:34:06.337Z,4.13
2023-03-12T15:36:53.037Z,4.35
2023-03-12T15:39:38.729Z,4.30
2023-03-12T15:42:26.385Z,3.58
2023-03-12T15:45:28.957Z,3.47
2023-03-12T15:48:26.490Z,3.60
2023-03-12T15:51:30.646Z,3.95
2023-03-12T15:54:18.865Z,3.55
2023-03-12T15:57:23.424Z,4.00
2023-03-12T16:00:21.149Z,4.80
2023-03-12T16:03:14.959Z,4.00
2023-03-12T16:06:00.185Z,4.30
2023-03-12T16:08:55.108Z,4.47
2023-03-12T16:11:40.310Z,4.85
2023-03-12T16:14:30.942Z,4.57
2023-03-12T16:17:18.125Z,4.30
2023-03-12T16:20:05.565Z,3.25
2023-03-12T16:22:51.049Z,4.45
2023-03-12T16:25:37.192Z,4.65
2023-03-12T16:28:24.051Z,4.20
2023-03-12T16:31:15.337Z,4.22
2023-03-12T16:34:01.036Z,3.47
2023-03-12T16:36:46.117Z,4.20
2023-03-12T16:39:33.153Z,4.80
2023-03-12T16:42:20.426Z,3.63
2023-03-12T16:45:10.819Z,3.40
2023-03-12T16:48:01.373Z,4.50
2023-03-12T16:50:52.380Z,3.97
2023-03-12T16:53:37.528Z,4.63
2023-03-12T16:56:25.199Z,4.10
2023-03-12T16:59:27.371Z,4.05
2023-03-12T17:02:17.354Z,4.22
2023-03-12T17:05:02.972Z,4.25
2023-03-12T17:07:48.474Z,4.47
2023-03-12T17:10:33.803Z,3.50
2023-03-12T17:13:25.562Z,3.60
2023-03-12T17:16:12.803Z,4.07
2023-03-12T17:18:58.175Z,4.15
2023-03-12T17:21:44.188Z,5.10
2023-03-12T17:24:29.555Z,4.90
2023-03-12T17:27:15.587Z,4.45
2023-03-12T17:30:01.138Z,5.25
2023-03-12T17:32:46.868Z,5.13
2023-03-12T17:35:33.140Z,4.32
2023-03-12T17:38:18.484Z,5.65
2023-03-12T17:41:09.377Z,7.38
2023-03-12T17:43:59.747Z,5.55
2023-03-12T17:46:58.420Z,5.78
2023-03-12T17:49:45.059Z,6.93
2023-03-12T17:52:31.910Z,6.18
2023-03-12T17:55:17.467Z,4.88
2023-03-12T17:58:05.912Z,6.03
2023-03-12T18:00:50.975Z,5.47
2023-03-12T18:03:36.509Z,6.63
2023-03-12T18:06:21.638Z,6.15
2023-03-12T18:09:06.898Z,6.00
2023-03-12T18:11:52.520Z,5.95
2023-03-12T18:14:38.241Z,5.28
2023-03-12T18:17:23.475Z,4.53
2023-03-12T18:20:12.496Z,5.47
2023-03-12T18:22:58.015Z,4.70
2023-03-12T18:25:43.501Z,4.07
2023-03-12T18:28:28.931Z,3.90
2023-03-12T18:31:14.043Z,3.70
2023-03-12T18:33:59.440Z,3.40
2023-03-12T18:36:44.656Z,2.75
2023-03-12T18:39:30.328Z,3.10
2023-03-12T18:42:15.736Z,3.25
2023-03-12T18:45:01.257Z,3.38
2023-03-12T18:47:50.092Z,3.10
2023-03-12T18:50:35.133Z,3.30
2023-03-12T18:53:20.750Z,2.58
2023-03-12T18:56:06.757Z,2.90
2023-03-12T18:58:51.817Z,3.45
2023-03-12T19:01:37.518Z,2.63
2023-03-12T19:04:23.123Z,2.63
2023-03-12T19:07:10.793Z,2.60
2023-03-12T19:09:56.508Z,2.08
2023-03-12T19:12:52.170Z,3.00
2023-03-12T19:15:39.242Z,2.45
2023-03-12T19:18:24.478Z,3.05
2023-03-12T19:21:09.853Z,3.10
2023-03-12T19:23:55.230Z,3.83
2023-03-12T19:26:40.745Z,3.05
2023-03-12T19:29:26.361Z,2.90
2023-03-12T19:32:11.705Z,3.78
2023-03-12T19:34:57.160Z,2.97
2023-03-12T19:37:42.636Z,3.22
2023-03-12T19:40:28.153Z,3.90
2023-03-12T19:43:13.572Z,3.03
2023-03-12T19:45:59.290Z,3.28
2023-03-12T19:48:44.666Z,3.10
2023-03-12T19:51:30.153Z,3.47
2023-03-12T19:54:15.593Z,2.97
2023-03-12T19:57:01.053Z,3.10
2023-03-12T19:59:46.483Z,3.10
2023-03-12T20:02:32.184Z,3.00
2023-03-12T20:05:17.691Z,3.00
2023-03-12T20:08:03.122Z,3.38
2023-03-12T20:10:49.807Z,2.83
2023-03-12T20:13:35.724Z,2.88
2023-03-12T20:16:21.415Z,2.92
2023-03-12T20:19:06.642Z,2.88
2023-03-12T20:21:52.175Z,3.53
2023-03-12T20:24:37.606Z,2.28
2023-03-12T20:27:23.027Z,3.17
2023-03-12T20:30:09.352Z,3.00
2023-03-12T20:32:54.636Z,3.60
2023-03-12T20:35:40.216Z,3.40
2023-03-12T20:38:25.895Z,3.67
2023-03-12T20:41:15.539Z,3.05
2023-03-12T20:44:00.894Z,3.70
2023-03-12T20:46:47.608Z,2.65
2023-03-12T20:49:33.026Z,3.70
2023-03-12T20:52:18.260Z,2.85
2023-03-12T20:55:04.055Z,3.00
2023-03-12T20:57:49.407Z,3.70
2023-03-12T21:00:34.754Z,3.00
2023-03-12T21:03:20.238Z,3.53
2023-03-12T21:06:05.776Z,3.45
2023-03-12T21:08:51.200Z,3.70
2023-03-12T21:11:39.135Z,3.83
2023-03-12T21:14:24.867Z,3.30
2023-03-12T21:17:13.535Z,3.00
2023-03-12T21:19:58.779Z,3.08
2023-03-12T21:22:46.625Z,3.40
2023-03-12T21:25:36.548Z,3.33
2023-03-12T21:28:22.039Z,3.20
2023-03-12T21:31:10.147Z,3.80
2023-03-12T21:33:58.835Z,4.18
2023-03-12T21:36:44.028Z,3.65
2023-03-12T21:39:29.450Z,3.10
2023-03-12T21:42:14.963Z,3.22
2023-03-12T21:45:00.526Z,3.85
2023-03-12T21:47:46.404Z,3.33
2023-03-12T21:50:31.805Z,3.35
2023-03-12T21:53:23.749Z,3.35
2023-03-12T21:56:10.915Z,3.15
2023-03-12T21:58:57.291Z,3.30
2023-03-12T22:01:42.615Z,3.10
2023-03-12T22:04:28.502Z,3.08
2023-03-12T22:07:14.129Z,2.65
2023-03-12T22:09:59.600Z,3.30
2023-03-12T22:12:45.439Z,2.58
2023-03-12T22:15:31.376Z,2.58
2023-03-12T22:18:16.823Z,2.60
2023-03-12T22:21:04.621Z,3.28
2023-03-12T22:23:52.336Z,3.15
2023-03-12T22:26:37.556Z,2.67
2023-03-12T22:29:22.886Z,3.22
2023-03-12T22:32:08.221Z,2.70
2023-03-12T22:34:53.689Z,3.10
2023-03-12T22:37:39.084Z,3.75
2023-03-12T22:40:25.893Z,3.40
2023-03-12T22:43:11.276Z,3.30
2023-03-12T22:45:56.564Z,3.25
2023-03-12T22:48:42.976Z,3.85
2023-03-12T22:51:30.167Z,4.25
2023-03-12T22:54:15.292Z,3.13
2023-03-12T22:57:00.825Z,3.80
2023-03-12T22:59:47.845Z,3.28
2023-03-12T23:02:33.146Z,3.35
2023-03-12T23:05:18.770Z,3.63
2023-03-12T23:08:04.206Z,3.80
2023-03-12T23:10:54.541Z,3.40
2023-03-12T23:13:42.463Z,4.20
2023-03-12T23:16:27.932Z,4.25
2023-03-12T23:19:13.194Z,3.70
2023-03-12T23:21:58.809Z,3.70
2023-03-12T23:24:44.239Z,5.30
2023-03-12T23:27:29.783Z,3.92
2023-03-12T23:30:15.311Z,3.70
2023-03-12T23:33:01.737Z,3.63
2023-03-12T23:36:03.055Z,3.72
2023-03-12T23:38:49.521Z,4.03
2023-03-12T23:41:34.806Z,4.60
2023-03-12T23:44:20.123Z,3.85
2023-03-12T23:47:05.725Z,4.35
2023-03-12T23:49:51.253Z,4.25
2023-03-12T23:52:36.548Z,5.28
2023-03-12T23:55:21.942Z,4.78
2023-03-12T23:58:07.230Z,4.45
